If you wish to contribute or participate in the discussions about articles you are invited to join SKYbrary as a registered user

 Actions

Mont-de-Marsan (BA 118) Air Base

From SKYbrary Wiki

LFBM
Airport
ICAO: LFBM
Summary
Name Mont-de-Marsan (BA 118) Air Base
Region Europe
Territory France FR.gif
Location , Aquitaine
Serving Mont-de-marsan
Elevation 61.874 m
203 ft
203 ft61.874 m
Type medium airport
Coordinates 43° 54' 42.00" N, 0° 30' 27.00" W
Runways
Designator Length Width Surface ROPS
9/27 3603 m11,820.866 ft
45 m147.638 ft
PEM /


METAR
Observation LFBM 201930Z AUTO 00000KT CAVOK 18/14 Q1024 NOSIG
Station Mont-De-Marsan
Date/Time 20 August 2019 19:30:00
Wind direction
Wind speed 00 kts
Lowest cloud amount clouds and visibility OK
Temperature 18°C
Dew point 14°C
Humidity 77%
QNH 1024 hPa
Weather condition n/a